sensor_id;sensor_type;location;lat;lon;timestamp;P1;durP1;ratioP1;P2;durP2;ratioP2
61003;SDS011;46889;37.310;13.582;2023-04-02T00:02:19;12.88;;;3.30;;
61003;SDS011;46889;37.310;13.582;2023-04-02T00:07:50;10.23;;;2.85;;
61003;SDS011;46889;37.310;13.582;2023-04-02T00:10:26;13.65;;;2.95;;
61003;SDS011;46889;37.310;13.582;2023-04-02T00:13:01;15.32;;;3.20;;
61003;SDS011;46889;37.310;13.582;2023-04-02T00:15:48;13.35;;;3.03;;
61003;SDS011;46889;37.310;13.582;2023-04-02T00:18:20;14.73;;;3.13;;
61003;SDS011;46889;37.310;13.582;2023-04-02T00:21:34;13.32;;;3.15;;
61003;SDS011;46889;37.310;13.582;2023-04-02T00:23:40;10.10;;;3.22;;
61003;SDS011;46889;37.310;13.582;2023-04-02T00:26:21;12.50;;;3.25;;
61003;SDS011;46889;37.310;13.582;2023-04-02T00:28:52;13.38;;;3.25;;
61003;SDS011;46889;37.310;13.582;2023-04-02T00:31:20;19.05;;;3.20;;
61003;SDS011;46889;37.310;13.582;2023-04-02T00:33:47;15.27;;;4.10;;
61003;SDS011;46889;37.310;13.582;2023-04-02T00:36:14;13.20;;;3.17;;
61003;SDS011;46889;37.310;13.582;2023-04-02T00:38:46;13.77;;;3.53;;
61003;SDS011;46889;37.310;13.582;2023-04-02T00:41:15;17.67;;;3.38;;
61003;SDS011;46889;37.310;13.582;2023-04-02T00:43:45;15.02;;;3.47;;
61003;SDS011;46889;37.310;13.582;2023-04-02T00:46:18;16.52;;;3.72;;
61003;SDS011;46889;37.310;13.582;2023-04-02T00:48:58;18.80;;;3.95;;
61003;SDS011;46889;37.310;13.582;2023-04-02T00:51:35;15.68;;;3.42;;
61003;SDS011;46889;37.310;13.582;2023-04-02T00:54:06;19.17;;;4.88;;
61003;SDS011;46889;37.310;13.582;2023-04-02T00:56:46;17.67;;;3.90;;
61003;SDS011;46889;37.310;13.582;2023-04-02T00:59:18;15.00;;;3.88;;
61003;SDS011;46889;37.310;13.582;2023-04-02T01:04:57;16.27;;;3.67;;
61003;SDS011;46889;37.310;13.582;2023-04-02T01:07:46;14.40;;;3.50;;
61003;SDS011;46889;37.310;13.582;2023-04-02T01:10:44;15.82;;;3.75;;
61003;SDS011;46889;37.310;13.582;2023-04-02T01:21:20;14.48;;;3.47;;
61003;SDS011;46889;37.310;13.582;2023-04-02T01:24:01;16.83;;;4.07;;
61003;SDS011;46889;37.310;13.582;2023-04-02T01:32:04;12.75;;;3.30;;
61003;SDS011;46889;37.310;13.582;2023-04-02T01:34:36;22.40;;;3.60;;
61003;SDS011;46889;37.310;13.582;2023-04-02T01:39:38;11.05;;;2.63;;
61003;SDS011;46889;37.310;13.582;2023-04-02T01:45:31;13.67;;;3.13;;
61003;SDS011;46889;37.310;13.582;2023-04-02T01:47:38;17.73;;;3.17;;
61003;SDS011;46889;37.310;13.582;2023-04-02T01:52:55;10.93;;;2.58;;
61003;SDS011;46889;37.310;13.582;2023-04-02T01:57:58;19.27;;;3.33;;
61003;SDS011;46889;37.310;13.582;2023-04-02T02:00:26;9.20;;;2.70;;
61003;SDS011;46889;37.310;13.582;2023-04-02T02:02:54;11.63;;;2.70;;
61003;SDS011;46889;37.310;13.582;2023-04-02T02:05:21;12.85;;;2.70;;
61003;SDS011;46889;37.310;13.582;2023-04-02T02:07:49;12.55;;;3.40;;
61003;SDS011;46889;37.310;13.582;2023-04-02T02:10:17;12.65;;;3.05;;
61003;SDS011;46889;37.310;13.582;2023-04-02T02:12:48;10.80;;;2.63;;
61003;SDS011;46889;37.310;13.582;2023-04-02T02:15:15;9.18;;;2.58;;
61003;SDS011;46889;37.310;13.582;2023-04-02T02:17:43;14.52;;;3.22;;
61003;SDS011;46889;37.310;13.582;2023-04-02T02:20:10;12.98;;;3.00;;
61003;SDS011;46889;37.310;13.582;2023-04-02T02:22:39;12.32;;;2.80;;
61003;SDS011;46889;37.310;13.582;2023-04-02T02:25:10;12.80;;;3.05;;
61003;SDS011;46889;37.310;13.582;2023-04-02T02:27:48;10.00;;;2.55;;
61003;SDS011;46889;37.310;13.582;2023-04-02T02:30:40;13.23;;;2.95;;
61003;SDS011;46889;37.310;13.582;2023-04-02T02:35:55;16.48;;;3.05;;
61003;SDS011;46889;37.310;13.582;2023-04-02T02:41:21;12.00;;;2.85;;
61003;SDS011;46889;37.310;13.582;2023-04-02T02:43:59;15.10;;;3.00;;
61003;SDS011;46889;37.310;13.582;2023-04-02T02:46:44;12.95;;;3.17;;
61003;SDS011;46889;37.310;13.582;2023-04-02T02:49:15;11.15;;;3.17;;
61003;SDS011;46889;37.310;13.582;2023-04-02T02:51:46;12.93;;;3.17;;
61003;SDS011;46889;37.310;13.582;2023-04-02T02:54:30;12.38;;;3.15;;
61003;SDS011;46889;37.310;13.582;2023-04-02T02:57:00;13.55;;;2.80;;
61003;SDS011;46889;37.310;13.582;2023-04-02T02:59:30;16.50;;;3.33;;
61003;SDS011;46889;37.310;13.582;2023-04-02T03:01:57;14.63;;;2.97;;
61003;SDS011;46889;37.310;13.582;2023-04-02T03:04:25;12.70;;;3.25;;
61003;SDS011;46889;37.310;13.582;2023-04-02T03:06:55;9.25;;;2.67;;
61003;SDS011;46889;37.310;13.582;2023-04-02T03:12:27;10.75;;;2.58;;
61003;SDS011;46889;37.310;13.582;2023-04-02T03:17:44;14.52;;;3.20;;
61003;SDS011;46889;37.310;13.582;2023-04-02T03:20:20;13.60;;;3.15;;
61003;SDS011;46889;37.310;13.582;2023-04-02T03:28:22;15.68;;;3.03;;
61003;SDS011;46889;37.310;13.582;2023-04-02T03:30:54;12.95;;;3.08;;
61003;SDS011;46889;37.310;13.582;2023-04-02T03:33:41;12.98;;;3.10;;
61003;SDS011;46889;37.310;13.582;2023-04-02T03:41:51;15.60;;;3.58;;
61003;SDS011;46889;37.310;13.582;2023-04-02T03:44:34;10.35;;;2.92;;
61003;SDS011;46889;37.310;13.582;2023-04-02T03:47:23;13.60;;;3.05;;
61003;SDS011;46889;37.310;13.582;2023-04-02T03:52:53;9.75;;;2.55;;
61003;SDS011;46889;37.310;13.582;2023-04-02T03:55:21;11.90;;;2.78;;
61003;SDS011;46889;37.310;13.582;2023-04-02T04:00:42;11.95;;;3.25;;
61003;SDS011;46889;37.310;13.582;2023-04-02T04:03:15;14.57;;;2.90;;
61003;SDS011;46889;37.310;13.582;2023-04-02T04:05:49;15.23;;;2.70;;
61003;SDS011;46889;37.310;13.582;2023-04-02T04:08:20;10.20;;;2.63;;
61003;SDS011;46889;37.310;13.582;2023-04-02T04:10:52;12.02;;;2.85;;
61003;SDS011;46889;37.310;13.582;2023-04-02T04:13:27;9.23;;;2.42;;
61003;SDS011;46889;37.310;13.582;2023-04-02T04:16:03;10.18;;;2.85;;
61003;SDS011;46889;37.310;13.582;2023-04-02T04:18:39;10.57;;;2.53;;
61003;SDS011;46889;37.310;13.582;2023-04-02T04:23:53;14.35;;;3.00;;
61003;SDS011;46889;37.310;13.582;2023-04-02T04:26:27;14.23;;;2.90;;
61003;SDS011;46889;37.310;13.582;2023-04-02T04:37:47;12.43;;;2.88;;
61003;SDS011;46889;37.310;13.582;2023-04-02T04:40:30;10.77;;;2.65;;
61003;SDS011;46889;37.310;13.582;2023-04-02T04:43:03;14.73;;;2.72;;
61003;SDS011;46889;37.310;13.582;2023-04-02T04:45:47;14.38;;;2.70;;
61003;SDS011;46889;37.310;13.582;2023-04-02T04:48:28;12.65;;;2.90;;
61003;SDS011;46889;37.310;13.582;2023-04-02T04:51:01;8.50;;;2.60;;
61003;SDS011;46889;37.310;13.582;2023-04-02T04:53:43;11.45;;;2.97;;
61003;SDS011;46889;37.310;13.582;2023-04-02T04:56:12;10.35;;;2.67;;
61003;SDS011;46889;37.310;13.582;2023-04-02T04:58:45;13.25;;;3.30;;
61003;SDS011;46889;37.310;13.582;2023-04-02T05:03:54;13.43;;;2.92;;
61003;SDS011;46889;37.310;13.582;2023-04-02T05:09:18;13.07;;;2.78;;
61003;SDS011;46889;37.310;13.582;2023-04-02T05:14:49;13.93;;;2.65;;
61003;SDS011;46889;37.310;13.582;2023-04-02T05:17:52;13.60;;;3.28;;
61003;SDS011;46889;37.310;13.582;2023-04-02T05:23:22;11.43;;;2.30;;
61003;SDS011;46889;37.310;13.582;2023-04-02T05:26:02;11.80;;;2.53;;
61003;SDS011;46889;37.310;13.582;2023-04-02T05:31:29;12.32;;;2.80;;
61003;SDS011;46889;37.310;13.582;2023-04-02T05:34:04;11.00;;;2.97;;
61003;SDS011;46889;37.310;13.582;2023-04-02T05:36:30;7.03;;;2.80;;
61003;SDS011;46889;37.310;13.582;2023-04-02T05:38:57;11.30;;;2.65;;
61003;SDS011;46889;37.310;13.582;2023-04-02T05:41:25;19.77;;;3.33;;
61003;SDS011;46889;37.310;13.582;2023-04-02T05:46:39;12.30;;;2.53;;
61003;SDS011;46889;37.310;13.582;2023-04-02T05:49:28;7.10;;;2.70;;
61003;SDS011;46889;37.310;13.582;2023-04-02T05:52:16;11.50;;;2.60;;
61003;SDS011;46889;37.310;13.582;2023-04-02T05:57:24;11.57;;;3.25;;
61003;SDS011;46889;37.310;13.582;2023-04-02T05:59:59;11.02;;;2.90;;
61003;SDS011;46889;37.310;13.582;2023-04-02T06:05:23;13.82;;;3.08;;
61003;SDS011;46889;37.310;13.582;2023-04-02T06:08:10;8.88;;;2.60;;
61003;SDS011;46889;37.310;13.582;2023-04-02T06:10:46;13.52;;;2.85;;
61003;SDS011;46889;37.310;13.582;2023-04-02T06:13:28;10.02;;;2.80;;
61003;SDS011;46889;37.310;13.582;2023-04-02T06:15:54;14.05;;;3.00;;
61003;SDS011;46889;37.310;13.582;2023-04-02T06:18:22;9.07;;;2.60;;
61003;SDS011;46889;37.310;13.582;2023-04-02T06:20:50;13.00;;;3.05;;
61003;SDS011;46889;37.310;13.582;2023-04-02T06:23:18;10.27;;;2.80;;
61003;SDS011;46889;37.310;13.582;2023-04-02T06:26:02;8.55;;;2.58;;
61003;SDS011;46889;37.310;13.582;2023-04-02T06:28:44;11.25;;;2.80;;
61003;SDS011;46889;37.310;13.582;2023-04-02T06:31:26;9.15;;;2.80;;
61003;SDS011;46889;37.310;13.582;2023-04-02T06:33:53;12.45;;;2.97;;
61003;SDS011;46889;37.310;13.582;2023-04-02T06:36:20;11.88;;;2.85;;
61003;SDS011;46889;37.310;13.582;2023-04-02T06:38:53;10.95;;;2.60;;
61003;SDS011;46889;37.310;13.582;2023-04-02T06:41:23;9.40;;;2.55;;
61003;SDS011;46889;37.310;13.582;2023-04-02T06:43:51;8.82;;;2.50;;
61003;SDS011;46889;37.310;13.582;2023-04-02T06:48:55;11.63;;;3.00;;
61003;SDS011;46889;37.310;13.582;2023-04-02T06:51:27;14.47;;;3.00;;
61003;SDS011;46889;37.310;13.582;2023-04-02T06:53:56;10.52;;;2.67;;
61003;SDS011;46889;37.310;13.582;2023-04-02T06:59:11;10.40;;;2.83;;
61003;SDS011;46889;37.310;13.582;2023-04-02T07:01:46;7.00;;;2.42;;
61003;SDS011;46889;37.310;13.582;2023-04-02T07:04:17;12.68;;;3.30;;
61003;SDS011;46889;37.310;13.582;2023-04-02T07:06:44;10.70;;;2.70;;
61003;SDS011;46889;37.310;13.582;2023-04-02T07:09:10;11.85;;;2.83;;
61003;SDS011;46889;37.310;13.582;2023-04-02T07:14:02;11.88;;;4.03;;
61003;SDS011;46889;37.310;13.582;2023-04-02T07:16:30;12.63;;;4.05;;
61003;SDS011;46889;37.310;13.582;2023-04-02T07:18:58;13.73;;;3.58;;
61003;SDS011;46889;37.310;13.582;2023-04-02T07:21:24;9.73;;;2.80;;
61003;SDS011;46889;37.310;13.582;2023-04-02T07:23:52;13.52;;;2.90;;
61003;SDS011;46889;37.310;13.582;2023-04-02T07:26:20;8.70;;;2.53;;
61003;SDS011;46889;37.310;13.582;2023-04-02T07:28:50;12.85;;;4.00;;
61003;SDS011;46889;37.310;13.582;2023-04-02T07:31:18;9.55;;;2.58;;
61003;SDS011;46889;37.310;13.582;2023-04-02T07:33:50;13.05;;;2.60;;
61003;SDS011;46889;37.310;13.582;2023-04-02T07:36:18;8.23;;;2.67;;
61003;SDS011;46889;37.310;13.582;2023-04-02T07:38:48;11.38;;;2.75;;
61003;SDS011;46889;37.310;13.582;2023-04-02T07:41:14;10.20;;;2.60;;
61003;SDS011;46889;37.310;13.582;2023-04-02T07:43:41;8.38;;;2.60;;
61003;SDS011;46889;37.310;13.582;2023-04-02T07:46:08;11.50;;;3.00;;
61003;SDS011;46889;37.310;13.582;2023-04-02T07:48:34;9.23;;;2.30;;
61003;SDS011;46889;37.310;13.582;2023-04-02T07:51:01;11.30;;;2.42;;
61003;SDS011;46889;37.310;13.582;2023-04-02T07:53:34;10.13;;;2.55;;
61003;SDS011;46889;37.310;13.582;2023-04-02T07:56:05;8.10;;;2.08;;
61003;SDS011;46889;37.310;13.582;2023-04-02T07:58:32;6.43;;;2.00;;
61003;SDS011;46889;37.310;13.582;2023-04-02T08:00:58;10.48;;;2.20;;
61003;SDS011;46889;37.310;13.582;2023-04-02T08:03:26;13.02;;;2.33;;
61003;SDS011;46889;37.310;13.582;2023-04-02T08:05:54;8.00;;;2.17;;
61003;SDS011;46889;37.310;13.582;2023-04-02T08:08:21;8.23;;;2.20;;
61003;SDS011;46889;37.310;13.582;2023-04-02T08:10:48;9.88;;;2.55;;
61003;SDS011;46889;37.310;13.582;2023-04-02T08:13:15;10.88;;;2.42;;
61003;SDS011;46889;37.310;13.582;2023-04-02T08:15:43;11.07;;;2.67;;
61003;SDS011;46889;37.310;13.582;2023-04-02T08:18:10;10.70;;;2.50;;
61003;SDS011;46889;37.310;13.582;2023-04-02T08:20:36;13.98;;;2.80;;
61003;SDS011;46889;37.310;13.582;2023-04-02T08:23:02;11.82;;;2.75;;
61003;SDS011;46889;37.310;13.582;2023-04-02T08:25:30;12.38;;;2.80;;
61003;SDS011;46889;37.310;13.582;2023-04-02T08:27:56;11.93;;;2.42;;
61003;SDS011;46889;37.310;13.582;2023-04-02T08:30:22;11.60;;;3.17;;
61003;SDS011;46889;37.310;13.582;2023-04-02T08:32:48;18.02;;;2.67;;
61003;SDS011;46889;37.310;13.582;2023-04-02T08:35:14;12.27;;;2.85;;
61003;SDS011;46889;37.310;13.582;2023-04-02T08:37:41;13.60;;;2.80;;
61003;SDS011;46889;37.310;13.582;2023-04-02T08:40:15;13.60;;;3.22;;
61003;SDS011;46889;37.310;13.582;2023-04-02T08:48:18;10.93;;;3.00;;
61003;SDS011;46889;37.310;13.582;2023-04-02T08:50:45;13.25;;;3.28;;
61003;SDS011;46889;37.310;13.582;2023-04-02T08:53:17;17.60;;;3.22;;
61003;SDS011;46889;37.310;13.582;2023-04-02T08:55:59;16.33;;;3.42;;
61003;SDS011;46889;37.310;13.582;2023-04-02T09:04:20;14.30;;;3.30;;
61003;SDS011;46889;37.310;13.582;2023-04-02T09:06:49;14.73;;;3.30;;
61003;SDS011;46889;37.310;13.582;2023-04-02T09:09:19;14.70;;;3.13;;
61003;SDS011;46889;37.310;13.582;2023-04-02T09:11:57;13.23;;;3.03;;
61003;SDS011;46889;37.310;13.582;2023-04-02T09:17:09;10.35;;;2.83;;
61003;SDS011;46889;37.310;13.582;2023-04-02T09:19:51;15.45;;;3.17;;
61003;SDS011;46889;37.310;13.582;2023-04-02T09:24:57;8.02;;;2.40;;
61003;SDS011;46889;37.310;13.582;2023-04-02T09:27:28;9.63;;;2.53;;
61003;SDS011;46889;37.310;13.582;2023-04-02T09:29:56;13.40;;;3.00;;
61003;SDS011;46889;37.310;13.582;2023-04-02T09:35:15;10.40;;;2.55;;
61003;SDS011;46889;37.310;13.582;2023-04-02T09:43:26;9.52;;;2.38;;
61003;SDS011;46889;37.310;13.582;2023-04-02T09:48:43;11.23;;;3.20;;
61003;SDS011;46889;37.310;13.582;2023-04-02T09:51:20;14.30;;;3.40;;
61003;SDS011;46889;37.310;13.582;2023-04-02T09:53:50;15.00;;;3.60;;
61003;SDS011;46889;37.310;13.582;2023-04-02T09:56:38;14.63;;;2.50;;
61003;SDS011;46889;37.310;13.582;2023-04-02T10:01:38;12.80;;;2.72;;
61003;SDS011;46889;37.310;13.582;2023-04-02T10:04:29;8.85;;;2.47;;
61003;SDS011;46889;37.310;13.582;2023-04-02T10:06:57;11.63;;;2.90;;
61003;SDS011;46889;37.310;13.582;2023-04-02T10:09:31;12.30;;;2.85;;
61003;SDS011;46889;37.310;13.582;2023-04-02T10:11:58;11.82;;;2.80;;
61003;SDS011;46889;37.310;13.582;2023-04-02T10:14:33;17.88;;;3.10;;
61003;SDS011;46889;37.310;13.582;2023-04-02T10:17:11;11.57;;;2.88;;
61003;SDS011;46889;37.310;13.582;2023-04-02T10:19:49;15.30;;;2.80;;
61003;SDS011;46889;37.310;13.582;2023-04-02T10:22:39;15.15;;;2.97;;
61003;SDS011;46889;37.310;13.582;2023-04-02T10:26:13;13.85;;;3.58;;
61003;SDS011;46889;37.310;13.582;2023-04-02T10:29:35;19.15;;;3.40;;
61003;SDS011;46889;37.310;13.582;2023-04-02T10:33:11;12.52;;;3.20;;
61003;SDS011;46889;37.310;13.582;2023-04-02T10:36:01;14.68;;;3.38;;
61003;SDS011;46889;37.310;13.582;2023-04-02T10:38:50;14.85;;;3.15;;
61003;SDS011;46889;37.310;13.582;2023-04-02T10:54:49;18.77;;;5.95;;
61003;SDS011;46889;37.310;13.582;2023-04-02T10:59:52;15.85;;;3.67;;
61003;SDS011;46889;37.310;13.582;2023-04-02T11:02:26;12.98;;;3.28;;
61003;SDS011;46889;37.310;13.582;2023-04-02T11:04:57;10.90;;;3.08;;
61003;SDS011;46889;37.310;13.582;2023-04-02T11:07:35;14.63;;;3.40;;
61003;SDS011;46889;37.310;13.582;2023-04-02T11:10:12;15.80;;;3.40;;
61003;SDS011;46889;37.310;13.582;2023-04-02T11:13:06;29.38;;;3.50;;
61003;SDS011;46889;37.310;13.582;2023-04-02T11:15:42;21.40;;;4.78;;
61003;SDS011;46889;37.310;13.582;2023-04-02T11:18:22;19.08;;;4.03;;
61003;SDS011;46889;37.310;13.582;2023-04-02T11:21:00;17.35;;;3.60;;
61003;SDS011;46889;37.310;13.582;2023-04-02T11:23:35;20.35;;;4.03;;
61003;SDS011;46889;37.310;13.582;2023-04-02T11:26:52;19.13;;;4.57;;
61003;SDS011;46889;37.310;13.582;2023-04-02T11:29:16;15.30;;;3.47;;
61003;SDS011;46889;37.310;13.582;2023-04-02T11:37:37;19.27;;;4.13;;
61003;SDS011;46889;37.310;13.582;2023-04-02T11:42:39;16.85;;;3.13;;
61003;SDS011;46889;37.310;13.582;2023-04-02T11:53:02;15.98;;;2.70;;
61003;SDS011;46889;37.310;13.582;2023-04-02T11:55:35;12.18;;;3.03;;
61003;SDS011;46889;37.310;13.582;2023-04-02T11:58:18;16.13;;;2.55;;
61003;SDS011;46889;37.310;13.582;2023-04-02T12:01:19;16.50;;;3.55;;
61003;SDS011;46889;37.310;13.582;2023-04-02T12:06:45;15.75;;;3.72;;
61003;SDS011;46889;37.310;13.582;2023-04-02T12:09:26;16.38;;;2.97;;
61003;SDS011;46889;37.310;13.582;2023-04-02T12:11:57;11.82;;;3.00;;
61003;SDS011;46889;37.310;13.582;2023-04-02T12:17:17;16.30;;;3.03;;
61003;SDS011;46889;37.310;13.582;2023-04-02T12:19:49;12.70;;;3.08;;
61003;SDS011;46889;37.310;13.582;2023-04-02T12:22:22;17.98;;;3.00;;
61003;SDS011;46889;37.310;13.582;2023-04-02T12:25:03;20.67;;;3.65;;
61003;SDS011;46889;37.310;13.582;2023-04-02T12:27:42;13.40;;;3.28;;
61003;SDS011;46889;37.310;13.582;2023-04-02T12:30:17;13.27;;;3.15;;
61003;SDS011;46889;37.310;13.582;2023-04-02T12:32:45;16.80;;;2.85;;
61003;SDS011;46889;37.310;13.582;2023-04-02T12:35:26;17.10;;;3.13;;
61003;SDS011;46889;37.310;13.582;2023-04-02T12:38:00;13.05;;;3.05;;
61003;SDS011;46889;37.310;13.582;2023-04-02T12:40:26;13.07;;;2.95;;
61003;SDS011;46889;37.310;13.582;2023-04-02T12:47:49;15.40;;;3.70;;
61003;SDS011;46889;37.310;13.582;2023-04-02T12:50:17;13.77;;;2.83;;
61003;SDS011;46889;37.310;13.582;2023-04-02T12:52:47;14.30;;;3.22;;
61003;SDS011;46889;37.310;13.582;2023-04-02T12:55:19;16.00;;;3.42;;
61003;SDS011;46889;37.310;13.582;2023-04-02T12:57:48;14.07;;;2.90;;
61003;SDS011;46889;37.310;13.582;2023-04-02T13:03:06;14.48;;;3.00;;
61003;SDS011;46889;37.310;13.582;2023-04-02T13:05:55;12.18;;;2.40;;
61003;SDS011;46889;37.310;13.582;2023-04-02T13:08:23;11.85;;;2.70;;
61003;SDS011;46889;37.310;13.582;2023-04-02T13:10:56;11.38;;;2.78;;
61003;SDS011;46889;37.310;13.582;2023-04-02T13:13:28;14.75;;;2.88;;
61003;SDS011;46889;37.310;13.582;2023-04-02T13:16:02;10.18;;;3.15;;
61003;SDS011;46889;37.310;13.582;2023-04-02T13:18:41;13.02;;;2.33;;
61003;SDS011;46889;37.310;13.582;2023-04-02T13:23:43;11.40;;;3.03;;
61003;SDS011;46889;37.310;13.582;2023-04-02T13:26:17;16.15;;;2.50;;
61003;SDS011;46889;37.310;13.582;2023-04-02T13:31:37;12.52;;;3.05;;
61003;SDS011;46889;37.310;13.582;2023-04-02T13:34:06;15.77;;;2.78;;
61003;SDS011;46889;37.310;13.582;2023-04-02T13:36:32;11.02;;;2.83;;
61003;SDS011;46889;37.310;13.582;2023-04-02T13:38:58;19.52;;;3.42;;
61003;SDS011;46889;37.310;13.582;2023-04-02T13:41:28;15.80;;;3.05;;
61003;SDS011;46889;37.310;13.582;2023-04-02T13:43:57;13.30;;;2.40;;
61003;SDS011;46889;37.310;13.582;2023-04-02T13:46:26;14.18;;;2.53;;
61003;SDS011;46889;37.310;13.582;2023-04-02T13:48:56;12.25;;;2.75;;
61003;SDS011;46889;37.310;13.582;2023-04-02T13:51:33;15.52;;;2.63;;
61003;SDS011;46889;37.310;13.582;2023-04-02T13:54:02;17.02;;;3.20;;
61003;SDS011;46889;37.310;13.582;2023-04-02T13:56:38;17.70;;;3.33;;
61003;SDS011;46889;37.310;13.582;2023-04-02T13:59:05;18.10;;;2.95;;
61003;SDS011;46889;37.310;13.582;2023-04-02T14:01:31;17.33;;;3.50;;
61003;SDS011;46889;37.310;13.582;2023-04-02T14:03:57;15.77;;;2.67;;
61003;SDS011;46889;37.310;13.582;2023-04-02T14:06:29;16.98;;;3.28;;
61003;SDS011;46889;37.310;13.582;2023-04-02T14:11:45;14.18;;;3.53;;
61003;SDS011;46889;37.310;13.582;2023-04-02T14:23:00;19.65;;;3.03;;
61003;SDS011;46889;37.310;13.582;2023-04-02T14:26:05;14.88;;;3.08;;
61003;SDS011;46889;37.310;13.582;2023-04-02T14:28:49;13.07;;;2.85;;
61003;SDS011;46889;37.310;13.582;2023-04-02T14:37:18;13.48;;;3.08;;
61003;SDS011;46889;37.310;13.582;2023-04-02T14:42:30;16.85;;;2.85;;
61003;SDS011;46889;37.310;13.582;2023-04-02T14:45:05;18.60;;;2.80;;
61003;SDS011;46889;37.310;13.582;2023-04-02T14:47:38;15.68;;;3.15;;
61003;SDS011;46889;37.310;13.582;2023-04-02T14:50:29;18.05;;;3.97;;
61003;SDS011;46889;37.310;13.582;2023-04-02T14:55:53;20.52;;;3.90;;
61003;SDS011;46889;37.310;13.582;2023-04-02T14:58:24;20.52;;;3.58;;
61003;SDS011;46889;37.310;13.582;2023-04-02T15:03:39;23.88;;;3.60;;
61003;SDS011;46889;37.310;13.582;2023-04-02T15:06:30;20.80;;;3.90;;
61003;SDS011;46889;37.310;13.582;2023-04-02T15:11:35;20.00;;;3.50;;
61003;SDS011;46889;37.310;13.582;2023-04-02T15:16:45;17.02;;;4.10;;
61003;SDS011;46889;37.310;13.582;2023-04-02T15:19:12;19.95;;;3.38;;
61003;SDS011;46889;37.310;13.582;2023-04-02T15:36:19;17.70;;;3.47;;
61003;SDS011;46889;37.310;13.582;2023-04-02T15:49:49;20.38;;;3.63;;
61003;SDS011;46889;37.310;13.582;2023-04-02T16:10:32;12.93;;;2.88;;
61003;SDS011;46889;37.310;13.582;2023-04-02T16:13:10;13.15;;;2.28;;
61003;SDS011;46889;37.310;13.582;2023-04-02T16:21:48;7.90;;;1.92;;
61003;SDS011;46889;37.310;13.582;2023-04-02T16:24:31;13.18;;;2.42;;
61003;SDS011;46889;37.310;13.582;2023-04-02T16:26:59;12.30;;;3.28;;
61003;SDS011;46889;37.310;13.582;2023-04-02T16:37:41;12.98;;;2.90;;
61003;SDS011;46889;37.310;13.582;2023-04-02T16:45:42;10.63;;;2.25;;
61003;SDS011;46889;37.310;13.582;2023-04-02T16:48:22;11.15;;;2.03;;
61003;SDS011;46889;37.310;13.582;2023-04-02T16:51:03;9.82;;;2.20;;
61003;SDS011;46889;37.310;13.582;2023-04-02T16:53:46;13.15;;;2.72;;
61003;SDS011;46889;37.310;13.582;2023-04-02T17:04:57;12.02;;;2.53;;
61003;SDS011;46889;37.310;13.582;2023-04-02T17:15:48;8.13;;;1.60;;
61003;SDS011;46889;37.310;13.582;2023-04-02T17:18:23;7.70;;;1.88;;
61003;SDS011;46889;37.310;13.582;2023-04-02T17:20:50;7.95;;;1.50;;
61003;SDS011;46889;37.310;13.582;2023-04-02T17:23:17;5.65;;;1.67;;
61003;SDS011;46889;37.310;13.582;2023-04-02T17:28:14;4.78;;;1.55;;
61003;SDS011;46889;37.310;13.582;2023-04-02T17:30:48;9.00;;;1.58;;
61003;SDS011;46889;37.310;13.582;2023-04-02T17:43:57;5.65;;;1.20;;
61003;SDS011;46889;37.310;13.582;2023-04-02T17:46:46;6.93;;;1.50;;
61003;SDS011;46889;37.310;13.582;2023-04-02T17:50:35;4.43;;;0.98;;
61003;SDS011;46889;37.310;13.582;2023-04-02T17:52:46;5.20;;;1.05;;
61003;SDS011;46889;37.310;13.582;2023-04-02T17:58:13;6.78;;;1.20;;
61003;SDS011;46889;37.310;13.582;2023-04-02T18:01:06;7.82;;;1.10;;
61003;SDS011;46889;37.310;13.582;2023-04-02T18:04:11;4.43;;;1.00;;
61003;SDS011;46889;37.310;13.582;2023-04-02T18:07:09;6.47;;;1.10;;
61003;SDS011;46889;37.310;13.582;2023-04-02T18:09:56;6.43;;;1.25;;
61003;SDS011;46889;37.310;13.582;2023-04-02T18:12:53;4.30;;;1.05;;
61003;SDS011;46889;37.310;13.582;2023-04-02T18:15:38;5.75;;;0.98;;
61003;SDS011;46889;37.310;13.582;2023-04-02T18:23:49;7.35;;;1.20;;
61003;SDS011;46889;37.310;13.582;2023-04-02T18:51:57;6.00;;;0.90;;
61003;SDS011;46889;37.310;13.582;2023-04-02T19:00:05;4.13;;;1.27;;
61003;SDS011;46889;37.310;13.582;2023-04-02T19:05:36;5.30;;;1.10;;
61003;SDS011;46889;37.310;13.582;2023-04-02T19:08:15;4.63;;;1.00;;
61003;SDS011;46889;37.310;13.582;2023-04-02T19:11:03;5.72;;;1.10;;
61003;SDS011;46889;37.310;13.582;2023-04-02T19:13:35;3.75;;;0.90;;
61003;SDS011;46889;37.310;13.582;2023-04-02T19:18:57;6.60;;;1.10;;
61003;SDS011;46889;37.310;13.582;2023-04-02T19:29:39;4.80;;;0.70;;
61003;SDS011;46889;37.310;13.582;2023-04-02T19:32:26;7.63;;;1.23;;
61003;SDS011;46889;37.310;13.582;2023-04-02T19:43:47;5.93;;;1.08;;
61003;SDS011;46889;37.310;13.582;2023-04-02T19:46:32;5.95;;;1.08;;
61003;SDS011;46889;37.310;13.582;2023-04-02T19:49:03;5.30;;;1.07;;
61003;SDS011;46889;37.310;13.582;2023-04-02T19:51:30;6.57;;;1.05;;
61003;SDS011;46889;37.310;13.582;2023-04-02T19:53:57;6.10;;;1.13;;
61003;SDS011;46889;37.310;13.582;2023-04-02T19:56:24;3.75;;;0.88;;
61003;SDS011;46889;37.310;13.582;2023-04-02T19:58:51;3.72;;;0.90;;
61003;SDS011;46889;37.310;13.582;2023-04-02T20:01:18;4.40;;;1.10;;
61003;SDS011;46889;37.310;13.582;2023-04-02T20:03:45;5.30;;;0.95;;
61003;SDS011;46889;37.310;13.582;2023-04-02T20:06:12;4.60;;;1.00;;
61003;SDS011;46889;37.310;13.582;2023-04-02T20:09:00;4.45;;;0.85;;
61003;SDS011;46889;37.310;13.582;2023-04-02T20:11:26;10.57;;;1.20;;
61003;SDS011;46889;37.310;13.582;2023-04-02T20:13:52;7.72;;;1.05;;
61003;SDS011;46889;37.310;13.582;2023-04-02T20:16:19;3.17;;;0.82;;
61003;SDS011;46889;37.310;13.582;2023-04-02T20:18:48;3.22;;;0.90;;
61003;SDS011;46889;37.310;13.582;2023-04-02T20:21:15;1.75;;;0.75;;
61003;SDS011;46889;37.310;13.582;2023-04-02T20:23:41;4.57;;;0.90;;
61003;SDS011;46889;37.310;13.582;2023-04-02T20:26:07;3.60;;;1.05;;
61003;SDS011;46889;37.310;13.582;2023-04-02T20:28:34;5.55;;;1.00;;
61003;SDS011;46889;37.310;13.582;2023-04-02T20:31:33;9.27;;;1.08;;
61003;SDS011;46889;37.310;13.582;2023-04-02T20:33:55;5.28;;;0.85;;
61003;SDS011;46889;37.310;13.582;2023-04-02T20:36:23;8.38;;;0.90;;
61003;SDS011;46889;37.310;13.582;2023-04-02T20:38:49;5.30;;;0.95;;
61003;SDS011;46889;37.310;13.582;2023-04-02T20:41:16;4.32;;;0.82;;
61003;SDS011;46889;37.310;13.582;2023-04-02T20:43:43;9.07;;;1.75;;
61003;SDS011;46889;37.310;13.582;2023-04-02T20:46:10;5.90;;;1.10;;
61003;SDS011;46889;37.310;13.582;2023-04-02T20:51:03;6.20;;;1.48;;
61003;SDS011;46889;37.310;13.582;2023-04-02T20:53:31;8.38;;;1.00;;
61003;SDS011;46889;37.310;13.582;2023-04-02T20:56:07;4.57;;;1.00;;
61003;SDS011;46889;37.310;13.582;2023-04-02T20:58:41;5.90;;;0.63;;
61003;SDS011;46889;37.310;13.582;2023-04-02T21:03:36;8.40;;;0.93;;
61003;SDS011;46889;37.310;13.582;2023-04-02T21:06:04;4.28;;;0.90;;
61003;SDS011;46889;37.310;13.582;2023-04-02T21:08:31;7.07;;;0.95;;
61003;SDS011;46889;37.310;13.582;2023-04-02T21:11:00;4.80;;;0.98;;
61003;SDS011;46889;37.310;13.582;2023-04-02T21:13:27;5.85;;;1.00;;
61003;SDS011;46889;37.310;13.582;2023-04-02T21:15:55;6.03;;;0.82;;
61003;SDS011;46889;37.310;13.582;2023-04-02T21:18:21;6.13;;;1.10;;
61003;SDS011;46889;37.310;13.582;2023-04-02T21:20:57;9.17;;;1.73;;